Flight Track Log - Related Links

Times and Time Zones

All times are in EDT time to prevent confusion due to time zone crossing. See the N25HB flight status page for this flight to view local times or setup timezone preferences in your user account.

Time Position Orientation Groundspeed Altitude Reporting Facility
EDT Latitude Longitude Course Direction KTS MPH feet Rate Location/Type
Tue 05:36:12 PM 40.8167 -74.1333 241° Southwest 121 139 2,400  Level New York TRACON
Tue 05:37:12 PM 40.8167 -74.1667 270° West 113 130 3,900 800 Climbing New York TRACON
Tue 05:38:12 PM 40.8167 -74.2167 270° West 172 198 4,000 50 Climbing New York TRACON
Tue 05:39:12 PM 40.8167 -74.2833 270° West 190 219 4,000  Level New York TRACON
Tue 05:40:12 PM 40.7833 -74.3500 237° Southwest 193 222 4,000  Level New York TRACON
Tue 05:41:00 PM 40.6873 -74.4522 241° Southwest  Level FlightAware Approximate
Tue 05:41:12 PM 40.7500 -74.4000 229° Southwest 190 219 4,000  Level New York TRACON
Tue 05:42:12 PM 40.7167 -74.4667 237° Southwest 192 221 4,000  Level New York TRACON
Tue 05:44:00 PM 40.6544 -74.5776 234° Southwest  Level FlightAware Approximate
Tue 05:51:00 PM 40.5466 -75.0769 261° West  Level FlightAware Approximate
Tue 05:52:00 PM 40.5372 -75.1524 261° West  Level FlightAware Approximate
Tue 05:53:00 PM 40.5397 -75.2278 281° West  Level FlightAware Approximate
Tue 05:54:00 PM 40.5501 -75.3030 273° West  Level FlightAware Approximate
Tue 05:55:00 PM 40.5536 -75.3794 273° West  Level FlightAware Approximate
Tue 05:56:00 PM 40.5569 -75.4558 273° West  Level FlightAware Approximate
Tue 05:57:00 PM 40.5602 -75.5322 273° West  Level FlightAware Approximate
Tue 05:58:00 PM 40.5635 -75.6087 273° West  Level FlightAware Approximate
Tue 05:59:00 PM 40.5662 -75.6850 250° West  Level FlightAware Approximate
Tue 06:00:00 PM 40.5463 -75.7569 250° West  Level FlightAware Approximate
Tue 06:01:00 PM 40.5264 -75.8288 250° West  Level FlightAware Approximate
Tue 06:02:00 PM 40.5064 -75.9006 250° West  Level FlightAware Approximate
Tue 06:03:00 PM 40.4864 -75.9724 250° West  Level FlightAware Approximate
Tue 06:04:00 PM 40.4743 -76.0471 259° West  Level FlightAware Approximate
Tue 06:05:00 PM 40.4613 -76.1214 252° West  Level FlightAware Approximate
Tue 06:06:00 PM 40.4412 -76.1931 246° West  Level FlightAware Approximate
Tue 06:07:00 PM 40.4179 -76.2630 246° West  Level FlightAware Approximate
Tue 06:08:00 PM 40.3956 -76.3335 251° West  Level FlightAware Approximate
Tue 06:09:00 PM 40.3769 -76.4058 251° West  Level FlightAware Approximate
Tue 06:10:00 PM 40.3588 -76.4728 250° West  Level FlightAware Approximate
Tue 06:11:00 PM 40.3406 -76.5398 250° West  Level FlightAware Approximate
Tue 06:12:00 PM 40.3224 -76.6067 250° West  Level FlightAware Approximate
Tue 06:13:00 PM 40.3042 -76.6736 250° West  Level FlightAware Approximate
Tue 06:14:00 PM 40.2859 -76.7404 250° West  Level FlightAware Approximate
Tue 06:15:00 PM 40.2834 -76.8108 270° West  Level FlightAware Approximate
Tue 06:16:00 PM 40.2833 -76.8818 270° West  Level FlightAware Approximate
Tue 06:17:00 PM 40.2936 -76.9511 285° West  Level FlightAware Approximate
Tue 06:18:00 PM 40.3000 -77.0210 270° West  Level FlightAware Approximate
Tue 06:19:00 PM 40.2923 -77.0434 114° Southeast  Level FlightAware Approximate
Tue 06:20:00 PM 40.2616 -76.9873 118° Southeast  Level FlightAware Approximate
Tue 06:21:00 PM 40.2365 -76.9245 118° Southeast  Level FlightAware Approximate
Tue 06:22:00 PM 40.2186 -76.8576 108° East  Level FlightAware Approximate
Tue 06:23:00 PM 40.2167 -76.8500 108° East  Level FlightAware Approximate
Tue 06:24:00 PM 40.2171 -76.8514 108° East  Level Estimated
Tue 06:25:00 PM 40.2167 -76.8500 108° East  Level FlightAware Approximate
Tue 06:26:00 PM 40.2171 -76.8514 108° East  Level Estimated
Tue 06:27:00 PM 40.2167 -76.8500 108° East  Level FlightAware Approximate
Tue 06:28:00 PM 40.2171 -76.8514 108° East  Level Estimated

Login

Don't have an account? Register now (free) for customized features, flight alerts, and more!